Terminal Aerodrome Forecast
Issued by NWS St Louis, MO

Home | Current Version | Previous Version | Text Only | Print | Product List | Glossary On
Versions: 1 2 3 4 5 6 7 8 9 10 11 12 13 14 15 16 17 18 19 20 21 22 23 24 25 26 27
000
FTUS43 KLSX 211700
TAFSTL
TAF
KSTL 211729Z 2118/2224 24010KT P6SM VCSH SCT040 OVC080
     FM212100 25010KT P6SM VCTS OVC040CB
      TEMPO 2122/2124 2SM TSRA OVC020CB
     FM220000 26009KT 6SM -SHRA VCTS OVC030CB
      TEMPO 2200/2203 3SM SHRA OVC015
     FM220400 31010KT P6SM OVC020
     FM220700 32012KT P6SM SKC
     FM221500 35013KT P6SM SKC=

USA.gov is the U.S. government's official web portal to all federal, state and local government web resources and services.